createdAt,value
2023-09-09T00:05:18.327Z,81.00
2023-09-09T00:15:17.292Z,80.70
2023-09-09T00:25:16.266Z,80.70
2023-09-09T00:35:15.351Z,80.70
2023-09-09T00:45:14.372Z,80.90
2023-09-09T00:55:13.316Z,81.30
2023-09-09T01:05:12.454Z,81.70
2023-09-09T01:15:11.341Z,82.10
2023-09-09T01:25:10.837Z,83.00
2023-09-09T01:35:09.522Z,83.60
2023-09-09T01:45:08.554Z,83.70
2023-09-09T01:55:07.665Z,83.80
2023-09-09T02:05:07.645Z,84.20
2023-09-09T02:15:06.558Z,84.80
2023-09-09T02:25:05.440Z,84.80
2023-09-09T02:35:04.480Z,85.10
2023-09-09T02:45:03.935Z,85.50
2023-09-09T02:55:02.692Z,86.00
2023-09-09T03:05:01.817Z,86.40
2023-09-09T03:15:00.718Z,86.80
2023-09-09T03:24:59.496Z,87.10
2023-09-09T03:34:58.531Z,87.30
2023-09-09T03:44:59.042Z,87.40
2023-09-09T03:54:58.551Z,87.70
2023-09-09T04:04:57.534Z,88.00
2023-09-09T04:14:56.561Z,88.40
2023-09-09T04:24:55.555Z,88.60
2023-09-09T04:34:54.690Z,88.80
2023-09-09T04:44:53.746Z,89.20
2023-09-09T04:54:52.686Z,89.50
2023-09-09T05:04:51.846Z,89.80
2023-09-09T05:14:50.570Z,90.00
2023-09-09T05:24:49.491Z,90.10
2023-09-09T05:34:48.874Z,90.30
2023-09-09T05:44:47.887Z,90.40
2023-09-09T05:54:46.699Z,90.40
2023-09-09T06:04:45.662Z,90.70
2023-09-09T06:14:44.909Z,90.70
2023-09-09T06:24:44.335Z,90.80
2023-09-09T06:34:43.615Z,90.90
2023-09-09T06:44:42.595Z,91.00
2023-09-09T06:54:41.549Z,91.10
2023-09-09T07:04:40.602Z,91.20
2023-09-09T07:14:41.791Z,91.20
2023-09-09T07:24:40.569Z,91.20
2023-09-09T07:34:39.659Z,91.00
2023-09-09T07:44:38.579Z,90.90
2023-09-09T07:54:37.580Z,90.60
2023-09-09T08:04:36.684Z,90.10
2023-09-09T08:14:35.593Z,89.70
2023-09-09T08:24:34.606Z,89.50
2023-09-09T08:34:33.705Z,89.50
2023-09-09T08:44:32.611Z,89.20
2023-09-09T08:54:31.629Z,88.50
2023-09-09T09:04:30.673Z,88.30
2023-09-09T09:14:30.378Z,87.30
2023-09-09T09:24:30.124Z,87.30
2023-09-09T09:34:28.634Z,86.30
2023-09-09T09:44:27.707Z,86.20
2023-09-09T09:54:26.671Z,85.40
2023-09-09T10:04:25.759Z,84.10
2023-09-09T10:14:24.709Z,83.90
2023-09-09T10:24:23.727Z,82.00
2023-09-09T10:34:22.688Z,81.70
2023-09-09T10:44:21.790Z,81.60
2023-09-09T10:54:20.720Z,79.80
2023-09-09T11:04:20.153Z,78.50
2023-09-09T11:14:18.808Z,78.20
2023-09-09T11:24:17.935Z,77.70
2023-09-09T11:34:16.850Z,76.30
2023-09-09T11:44:15.768Z,76.00
2023-09-09T11:54:14.757Z,74.20
2023-09-09T12:04:14.008Z,73.50
2023-09-09T12:14:12.881Z,74.10
2023-09-09T12:24:11.880Z,73.10
2023-09-09T12:34:10.780Z,73.20
2023-09-09T12:44:10.275Z,72.90
2023-09-09T12:54:08.885Z,71.40
2023-09-09T13:04:07.795Z,70.90
2023-09-09T13:14:13.201Z,70.40
2023-09-09T13:24:07.825Z,70.30
2023-09-09T13:34:06.843Z,68.50
2023-09-09T13:44:05.876Z,68.50
2023-09-09T13:54:04.937Z,67.60
2023-09-09T14:04:03.995Z,64.50
2023-09-09T14:14:02.863Z,63.90
2023-09-09T14:24:01.956Z,62.70
2023-09-09T14:34:00.862Z,62.80
2023-09-09T14:43:59.943Z,61.30
2023-09-09T14:53:58.913Z,60.30
2023-09-09T15:03:58.147Z,60.00
2023-09-09T15:13:56.958Z,61.00
2023-09-09T15:23:55.911Z,60.50
2023-09-09T15:33:55.169Z,60.90
2023-09-09T15:43:54.668Z,57.60
2023-09-09T15:53:53.948Z,57.50
2023-09-09T16:03:53.050Z,56.40
2023-09-09T16:13:52.221Z,57.00
2023-09-09T16:23:50.956Z,58.40
2023-09-09T16:33:50.036Z,59.60
2023-09-09T16:43:49.098Z,60.80
2023-09-09T16:53:47.982Z,60.90
2023-09-09T17:03:47.080Z,61.00
2023-09-09T17:13:46.041Z,61.30
2023-09-09T17:23:45.028Z,62.20
2023-09-09T17:33:44.005Z,63.00
2023-09-09T17:43:43.111Z,66.00
2023-09-09T17:53:42.059Z,68.00
2023-09-09T18:03:41.092Z,69.00
2023-09-09T18:13:40.060Z,69.80
2023-09-09T18:23:39.415Z,70.80
2023-09-09T18:33:39.356Z,72.10
2023-09-09T18:43:38.154Z,73.30
2023-09-09T18:53:37.092Z,74.10
2023-09-09T19:03:36.395Z,74.90
2023-09-09T19:13:35.160Z,75.90
2023-09-09T19:23:34.128Z,76.80
2023-09-09T19:33:33.151Z,77.10
2023-09-09T19:43:32.162Z,77.20
2023-09-09T19:53:31.125Z,77.70
2023-09-09T20:03:30.234Z,78.10
2023-09-09T20:13:29.186Z,78.90
2023-09-09T20:23:28.738Z,79.40
2023-09-09T20:33:27.159Z,79.80
2023-09-09T20:43:26.463Z,80.10
2023-09-09T20:53:25.222Z,80.40
2023-09-09T21:03:24.244Z,80.60
2023-09-09T21:13:23.186Z,80.70
2023-09-09T21:23:22.185Z,80.90
2023-09-09T21:33:21.183Z,81.40
2023-09-09T21:43:20.312Z,82.00
2023-09-09T21:53:19.487Z,82.50
2023-09-09T22:03:18.349Z,82.80
2023-09-09T22:13:17.268Z,83.30
2023-09-09T22:23:16.211Z,83.60
2023-09-09T22:33:15.232Z,84.00
2023-09-09T22:43:14.239Z,84.50
2023-09-09T22:53:13.335Z,84.90
2023-09-09T23:03:12.427Z,85.20
2023-09-09T23:13:11.289Z,85.40
2023-09-09T23:23:10.278Z,85.80
2023-09-09T23:33:09.291Z,86.40
2023-09-09T23:43:08.280Z,86.50
2023-09-09T23:53:07.300Z,86.90
